sensor_id;sensor_type;location;lat;lon;timestamp;P1;durP1;ratioP1;P2;durP2;ratioP2
75135;SDS011;63707;52.212;9.540;2022-11-23T00:00:55;3.35;;;2.15;;
75135;SDS011;63707;52.212;9.540;2022-11-23T00:03:20;5.35;;;2.28;;
75135;SDS011;63707;52.212;9.540;2022-11-23T00:05:46;6.22;;;2.20;;
75135;SDS011;63707;52.212;9.540;2022-11-23T00:08:11;4.35;;;1.90;;
75135;SDS011;63707;52.212;9.540;2022-11-23T00:10:37;4.25;;;2.15;;
75135;SDS011;63707;52.212;9.540;2022-11-23T00:13:04;7.63;;;2.95;;
75135;SDS011;63707;52.212;9.540;2022-11-23T00:15:29;6.38;;;3.05;;
75135;SDS011;63707;52.212;9.540;2022-11-23T00:17:56;6.53;;;2.38;;
75135;SDS011;63707;52.212;9.540;2022-11-23T00:20:24;5.43;;;2.83;;
75135;SDS011;63707;52.212;9.540;2022-11-23T00:22:49;5.72;;;2.10;;
75135;SDS011;63707;52.212;9.540;2022-11-23T00:25:15;5.35;;;2.08;;
75135;SDS011;63707;52.212;9.540;2022-11-23T00:27:40;4.07;;;1.90;;
75135;SDS011;63707;52.212;9.540;2022-11-23T00:30:08;5.22;;;2.10;;
75135;SDS011;63707;52.212;9.540;2022-11-23T00:32:34;5.35;;;2.15;;
75135;SDS011;63707;52.212;9.540;2022-11-23T00:35:00;6.15;;;2.40;;
75135;SDS011;63707;52.212;9.540;2022-11-23T00:37:26;5.05;;;2.15;;
75135;SDS011;63707;52.212;9.540;2022-11-23T00:39:51;5.97;;;2.20;;
75135;SDS011;63707;52.212;9.540;2022-11-23T00:42:17;6.70;;;2.28;;
75135;SDS011;63707;52.212;9.540;2022-11-23T00:44:42;5.63;;;1.80;;
75135;SDS011;63707;52.212;9.540;2022-11-23T00:47:09;4.05;;;1.85;;
75135;SDS011;63707;52.212;9.540;2022-11-23T00:49:35;5.38;;;1.92;;
75135;SDS011;63707;52.212;9.540;2022-11-23T00:52:00;4.13;;;1.80;;
75135;SDS011;63707;52.212;9.540;2022-11-23T00:54:26;5.93;;;1.80;;
75135;SDS011;63707;52.212;9.540;2022-11-23T00:56:51;5.55;;;1.90;;
75135;SDS011;63707;52.212;9.540;2022-11-23T00:59:17;5.38;;;1.88;;
75135;SDS011;63707;52.212;9.540;2022-11-23T01:01:42;2.80;;;1.60;;
75135;SDS011;63707;52.212;9.540;2022-11-23T01:04:09;4.18;;;1.80;;
75135;SDS011;63707;52.212;9.540;2022-11-23T01:06:35;6.00;;;2.03;;
75135;SDS011;63707;52.212;9.540;2022-11-23T01:09:04;2.50;;;1.70;;
75135;SDS011;63707;52.212;9.540;2022-11-23T01:14:03;6.68;;;1.98;;
75135;SDS011;63707;52.212;9.540;2022-11-23T01:16:29;5.38;;;1.75;;
75135;SDS011;63707;52.212;9.540;2022-11-23T01:18:57;3.83;;;1.80;;
75135;SDS011;63707;52.212;9.540;2022-11-23T01:21:26;6.45;;;1.95;;
75135;SDS011;63707;52.212;9.540;2022-11-23T01:23:52;4.97;;;1.52;;
75135;SDS011;63707;52.212;9.540;2022-11-23T01:26:18;6.22;;;1.67;;
75135;SDS011;63707;52.212;9.540;2022-11-23T01:28:44;5.22;;;1.90;;
75135;SDS011;63707;52.212;9.540;2022-11-23T01:31:11;5.70;;;2.22;;
75135;SDS011;63707;52.212;9.540;2022-11-23T01:33:38;7.50;;;2.10;;
75135;SDS011;63707;52.212;9.540;2022-11-23T01:36:08;5.25;;;2.03;;
75135;SDS011;63707;52.212;9.540;2022-11-23T01:38:35;4.07;;;1.60;;
75135;SDS011;63707;52.212;9.540;2022-11-23T01:41:02;5.40;;;2.13;;
75135;SDS011;63707;52.212;9.540;2022-11-23T01:43:28;5.05;;;1.90;;
75135;SDS011;63707;52.212;9.540;2022-11-23T01:45:57;5.45;;;2.35;;
75135;SDS011;63707;52.212;9.540;2022-11-23T01:48:24;3.05;;;1.67;;
75135;SDS011;63707;52.212;9.540;2022-11-23T01:50:53;6.05;;;2.35;;
75135;SDS011;63707;52.212;9.540;2022-11-23T01:53:20;5.18;;;1.65;;
75135;SDS011;63707;52.212;9.540;2022-11-23T01:55:48;5.78;;;1.90;;
75135;SDS011;63707;52.212;9.540;2022-11-23T01:58:15;6.53;;;1.92;;
75135;SDS011;63707;52.212;9.540;2022-11-23T02:00:45;6.22;;;2.08;;
75135;SDS011;63707;52.212;9.540;2022-11-23T02:03:11;3.90;;;1.50;;
75135;SDS011;63707;52.212;9.540;2022-11-23T02:05:39;4.10;;;1.45;;
75135;SDS011;63707;52.212;9.540;2022-11-23T02:08:07;4.90;;;1.70;;
75135;SDS011;63707;52.212;9.540;2022-11-23T02:10:33;9.13;;;1.83;;
75135;SDS011;63707;52.212;9.540;2022-11-23T02:13:03;8.38;;;1.85;;
75135;SDS011;63707;52.212;9.540;2022-11-23T02:15:30;12.35;;;2.05;;
75135;SDS011;63707;52.212;9.540;2022-11-23T02:17:57;9.55;;;2.38;;
75135;SDS011;63707;52.212;9.540;2022-11-23T02:20:26;7.95;;;1.98;;
75135;SDS011;63707;52.212;9.540;2022-11-23T02:22:55;7.28;;;2.00;;
75135;SDS011;63707;52.212;9.540;2022-11-23T02:25:34;8.73;;;2.08;;
75135;SDS011;63707;52.212;9.540;2022-11-23T02:28:06;6.53;;;1.88;;
75135;SDS011;63707;52.212;9.540;2022-11-23T02:30:33;5.97;;;1.80;;
75135;SDS011;63707;52.212;9.540;2022-11-23T02:33:02;8.25;;;2.00;;
75135;SDS011;63707;52.212;9.540;2022-11-23T02:35:30;9.50;;;2.13;;
75135;SDS011;63707;52.212;9.540;2022-11-23T02:37:55;9.02;;;2.28;;
75135;SDS011;63707;52.212;9.540;2022-11-23T02:40:24;8.70;;;2.65;;
75135;SDS011;63707;52.212;9.540;2022-11-23T02:42:52;7.90;;;2.15;;
75135;SDS011;63707;52.212;9.540;2022-11-23T02:45:20;5.72;;;1.92;;
75135;SDS011;63707;52.212;9.540;2022-11-23T02:47:51;6.60;;;2.22;;
75135;SDS011;63707;52.212;9.540;2022-11-23T02:50:17;10.32;;;3.00;;
75135;SDS011;63707;52.212;9.540;2022-11-23T02:52:42;6.93;;;2.00;;
75135;SDS011;63707;52.212;9.540;2022-11-23T02:55:08;9.65;;;2.83;;
75135;SDS011;63707;52.212;9.540;2022-11-23T02:57:34;9.48;;;2.70;;
75135;SDS011;63707;52.212;9.540;2022-11-23T03:00:00;8.10;;;2.47;;
75135;SDS011;63707;52.212;9.540;2022-11-23T03:02:27;5.50;;;2.03;;
75135;SDS011;63707;52.212;9.540;2022-11-23T03:04:52;8.25;;;2.50;;
75135;SDS011;63707;52.212;9.540;2022-11-23T03:07:18;9.15;;;2.20;;
75135;SDS011;63707;52.212;9.540;2022-11-23T03:09:43;9.00;;;3.17;;
75135;SDS011;63707;52.212;9.540;2022-11-23T03:12:09;8.95;;;2.08;;
75135;SDS011;63707;52.212;9.540;2022-11-23T03:14:34;7.95;;;2.10;;
75135;SDS011;63707;52.212;9.540;2022-11-23T03:17:02;6.45;;;2.10;;
75135;SDS011;63707;52.212;9.540;2022-11-23T03:19:29;8.85;;;2.20;;
75135;SDS011;63707;52.212;9.540;2022-11-23T03:21:55;6.78;;;2.10;;
75135;SDS011;63707;52.212;9.540;2022-11-23T03:24:20;8.90;;;2.17;;
75135;SDS011;63707;52.212;9.540;2022-11-23T03:26:46;5.22;;;2.10;;
75135;SDS011;63707;52.212;9.540;2022-11-23T03:29:12;8.75;;;2.28;;
75135;SDS011;63707;52.212;9.540;2022-11-23T03:31:38;7.18;;;2.17;;
75135;SDS011;63707;52.212;9.540;2022-11-23T03:34:04;10.63;;;2.40;;
75135;SDS011;63707;52.212;9.540;2022-11-23T03:36:31;9.98;;;2.15;;
75135;SDS011;63707;52.212;9.540;2022-11-23T03:38:56;9.60;;;2.70;;
75135;SDS011;63707;52.212;9.540;2022-11-23T03:41:22;11.77;;;3.65;;
75135;SDS011;63707;52.212;9.540;2022-11-23T03:43:47;9.70;;;2.38;;
75135;SDS011;63707;52.212;9.540;2022-11-23T03:46:13;5.57;;;2.30;;
75135;SDS011;63707;52.212;9.540;2022-11-23T03:48:38;6.55;;;2.42;;
75135;SDS011;63707;52.212;9.540;2022-11-23T03:51:04;11.27;;;2.80;;
75135;SDS011;63707;52.212;9.540;2022-11-23T03:53:31;9.07;;;2.42;;
75135;SDS011;63707;52.212;9.540;2022-11-23T03:55:56;7.18;;;2.15;;
75135;SDS011;63707;52.212;9.540;2022-11-23T03:58:22;7.72;;;2.45;;
75135;SDS011;63707;52.212;9.540;2022-11-23T04:00:48;12.30;;;2.75;;
75135;SDS011;63707;52.212;9.540;2022-11-23T04:03:13;5.07;;;2.72;;
75135;SDS011;63707;52.212;9.540;2022-11-23T04:05:39;5.93;;;2.67;;
75135;SDS011;63707;52.212;9.540;2022-11-23T04:08:04;8.65;;;2.50;;
75135;SDS011;63707;52.212;9.540;2022-11-23T04:10:31;9.13;;;2.58;;
75135;SDS011;63707;52.212;9.540;2022-11-23T04:12:57;10.23;;;2.75;;
75135;SDS011;63707;52.212;9.540;2022-11-23T04:15:22;12.48;;;3.63;;
75135;SDS011;63707;52.212;9.540;2022-11-23T04:17:48;9.27;;;2.50;;
75135;SDS011;63707;52.212;9.540;2022-11-23T04:20:14;6.57;;;2.70;;
75135;SDS011;63707;52.212;9.540;2022-11-23T04:22:40;10.50;;;2.67;;
75135;SDS011;63707;52.212;9.540;2022-11-23T04:25:06;10.45;;;3.05;;
75135;SDS011;63707;52.212;9.540;2022-11-23T04:27:33;10.63;;;2.70;;
75135;SDS011;63707;52.212;9.540;2022-11-23T04:29:58;10.23;;;2.90;;
75135;SDS011;63707;52.212;9.540;2022-11-23T04:32:24;7.43;;;2.72;;
75135;SDS011;63707;52.212;9.540;2022-11-23T04:34:50;9.85;;;2.75;;
75135;SDS011;63707;52.212;9.540;2022-11-23T04:37:15;7.28;;;2.63;;
75135;SDS011;63707;52.212;9.540;2022-11-23T04:39:41;11.20;;;2.53;;
75135;SDS011;63707;52.212;9.540;2022-11-23T04:42:07;12.20;;;2.95;;
75135;SDS011;63707;52.212;9.540;2022-11-23T04:44:35;11.68;;;2.70;;
75135;SDS011;63707;52.212;9.540;2022-11-23T04:47:00;8.65;;;3.60;;
75135;SDS011;63707;52.212;9.540;2022-11-23T04:49:26;6.72;;;3.17;;
75135;SDS011;63707;52.212;9.540;2022-11-23T04:51:51;8.60;;;3.30;;
75135;SDS011;63707;52.212;9.540;2022-11-23T04:54:17;7.00;;;3.00;;
75135;SDS011;63707;52.212;9.540;2022-11-23T04:56:42;8.10;;;3.28;;
75135;SDS011;63707;52.212;9.540;2022-11-23T04:59:08;8.52;;;2.50;;
75135;SDS011;63707;52.212;9.540;2022-11-23T05:01:35;6.78;;;2.53;;
75135;SDS011;63707;52.212;9.540;2022-11-23T05:04:00;9.65;;;3.25;;
75135;SDS011;63707;52.212;9.540;2022-11-23T05:06:26;6.45;;;2.45;;
75135;SDS011;63707;52.212;9.540;2022-11-23T05:08:52;9.00;;;2.47;;
75135;SDS011;63707;52.212;9.540;2022-11-23T05:11:18;9.93;;;2.83;;
75135;SDS011;63707;52.212;9.540;2022-11-23T05:13:44;7.30;;;2.60;;
75135;SDS011;63707;52.212;9.540;2022-11-23T05:16:10;10.93;;;3.03;;
75135;SDS011;63707;52.212;9.540;2022-11-23T05:18:37;9.70;;;2.67;;
75135;SDS011;63707;52.212;9.540;2022-11-23T05:21:02;8.07;;;2.75;;
75135;SDS011;63707;52.212;9.540;2022-11-23T05:23:28;9.82;;;2.50;;
75135;SDS011;63707;52.212;9.540;2022-11-23T05:25:53;8.50;;;2.50;;
75135;SDS011;63707;52.212;9.540;2022-11-23T05:28:19;8.18;;;2.78;;
75135;SDS011;63707;52.212;9.540;2022-11-23T05:30:46;7.38;;;2.45;;
75135;SDS011;63707;52.212;9.540;2022-11-23T05:33:12;9.15;;;2.88;;
75135;SDS011;63707;52.212;9.540;2022-11-23T05:35:39;12.95;;;4.30;;
75135;SDS011;63707;52.212;9.540;2022-11-23T05:38:05;7.90;;;2.90;;
75135;SDS011;63707;52.212;9.540;2022-11-23T05:40:31;11.55;;;3.10;;
75135;SDS011;63707;52.212;9.540;2022-11-23T05:42:57;7.95;;;2.80;;
75135;SDS011;63707;52.212;9.540;2022-11-23T05:45:23;10.38;;;2.97;;
75135;SDS011;63707;52.212;9.540;2022-11-23T05:47:49;11.27;;;3.75;;
75135;SDS011;63707;52.212;9.540;2022-11-23T05:50:15;10.88;;;2.78;;
75135;SDS011;63707;52.212;9.540;2022-11-23T05:52:42;5.53;;;3.00;;
75135;SDS011;63707;52.212;9.540;2022-11-23T05:55:08;10.32;;;3.72;;
75135;SDS011;63707;52.212;9.540;2022-11-23T05:57:33;8.77;;;2.85;;
75135;SDS011;63707;52.212;9.540;2022-11-23T05:59:59;8.82;;;3.10;;
75135;SDS011;63707;52.212;9.540;2022-11-23T06:02:24;7.18;;;3.00;;
75135;SDS011;63707;52.212;9.540;2022-11-23T06:04:50;9.75;;;2.58;;
75135;SDS011;63707;52.212;9.540;2022-11-23T06:07:15;7.60;;;2.50;;
75135;SDS011;63707;52.212;9.540;2022-11-23T06:09:42;10.73;;;2.90;;
75135;SDS011;63707;52.212;9.540;2022-11-23T06:12:08;7.43;;;2.78;;
75135;SDS011;63707;52.212;9.540;2022-11-23T06:14:33;9.27;;;2.78;;
75135;SDS011;63707;52.212;9.540;2022-11-23T06:16:59;11.50;;;3.00;;
75135;SDS011;63707;52.212;9.540;2022-11-23T06:19:24;13.98;;;3.28;;
75135;SDS011;63707;52.212;9.540;2022-11-23T06:21:50;7.82;;;3.28;;
75135;SDS011;63707;52.212;9.540;2022-11-23T06:24:15;7.47;;;2.58;;
75135;SDS011;63707;52.212;9.540;2022-11-23T06:26:42;12.45;;;3.78;;
75135;SDS011;63707;52.212;9.540;2022-11-23T06:29:08;11.52;;;3.15;;
75135;SDS011;63707;52.212;9.540;2022-11-23T06:31:33;8.52;;;2.90;;
75135;SDS011;63707;52.212;9.540;2022-11-23T06:34:00;5.85;;;2.35;;
75135;SDS011;63707;52.212;9.540;2022-11-23T06:36:26;11.65;;;2.85;;
75135;SDS011;63707;52.212;9.540;2022-11-23T06:38:51;9.68;;;2.72;;
75135;SDS011;63707;52.212;9.540;2022-11-23T06:41:17;13.50;;;4.10;;
75135;SDS011;63707;52.212;9.540;2022-11-23T06:43:45;12.40;;;3.33;;
75135;SDS011;63707;52.212;9.540;2022-11-23T06:46:10;7.47;;;2.90;;
75135;SDS011;63707;52.212;9.540;2022-11-23T06:48:36;10.80;;;3.10;;
75135;SDS011;63707;52.212;9.540;2022-11-23T06:51:01;9.50;;;3.28;;
75135;SDS011;63707;52.212;9.540;2022-11-23T06:53:27;12.77;;;3.30;;
75135;SDS011;63707;52.212;9.540;2022-11-23T06:55:56;10.07;;;2.78;;
75135;SDS011;63707;52.212;9.540;2022-11-23T06:58:22;9.05;;;2.72;;
75135;SDS011;63707;52.212;9.540;2022-11-23T07:00:49;8.95;;;2.80;;
75135;SDS011;63707;52.212;9.540;2022-11-23T07:03:17;9.57;;;2.88;;
75135;SDS011;63707;52.212;9.540;2022-11-23T07:05:44;7.43;;;2.42;;
75135;SDS011;63707;52.212;9.540;2022-11-23T07:08:09;8.38;;;3.03;;
75135;SDS011;63707;52.212;9.540;2022-11-23T07:10:36;14.40;;;2.35;;
75135;SDS011;63707;52.212;9.540;2022-11-23T07:13:02;11.20;;;2.60;;
75135;SDS011;63707;52.212;9.540;2022-11-23T07:15:29;12.02;;;2.60;;
75135;SDS011;63707;52.212;9.540;2022-11-23T07:17:55;10.20;;;2.60;;
75135;SDS011;63707;52.212;9.540;2022-11-23T07:20:21;7.63;;;2.30;;
75135;SDS011;63707;52.212;9.540;2022-11-23T07:22:47;9.27;;;3.10;;
75135;SDS011;63707;52.212;9.540;2022-11-23T07:25:12;7.68;;;2.08;;
75135;SDS011;63707;52.212;9.540;2022-11-23T07:27:43;7.45;;;2.55;;
75135;SDS011;63707;52.212;9.540;2022-11-23T07:30:09;11.32;;;2.65;;
75135;SDS011;63707;52.212;9.540;2022-11-23T07:32:35;6.10;;;2.53;;
75135;SDS011;63707;52.212;9.540;2022-11-23T07:35:02;8.07;;;2.50;;
75135;SDS011;63707;52.212;9.540;2022-11-23T07:37:27;7.38;;;2.72;;
75135;SDS011;63707;52.212;9.540;2022-11-23T07:39:53;7.35;;;2.70;;
75135;SDS011;63707;52.212;9.540;2022-11-23T07:42:18;7.05;;;1.95;;
75135;SDS011;63707;52.212;9.540;2022-11-23T07:44:44;8.88;;;2.25;;
75135;SDS011;63707;52.212;9.540;2022-11-23T07:47:10;6.00;;;2.08;;
75135;SDS011;63707;52.212;9.540;2022-11-23T07:49:35;5.28;;;2.00;;
75135;SDS011;63707;52.212;9.540;2022-11-23T07:52:02;7.80;;;2.60;;
75135;SDS011;63707;52.212;9.540;2022-11-23T07:54:28;9.25;;;2.60;;
75135;SDS011;63707;52.212;9.540;2022-11-23T07:56:53;10.60;;;2.45;;
75135;SDS011;63707;52.212;9.540;2022-11-23T07:59:19;6.10;;;1.90;;
75135;SDS011;63707;52.212;9.540;2022-11-23T08:01:45;8.82;;;2.00;;
75135;SDS011;63707;52.212;9.540;2022-11-23T08:04:11;6.57;;;2.33;;
75135;SDS011;63707;52.212;9.540;2022-11-23T08:06:36;9.15;;;2.53;;
75135;SDS011;63707;52.212;9.540;2022-11-23T08:09:03;4.28;;;1.92;;
75135;SDS011;63707;52.212;9.540;2022-11-23T08:11:29;6.38;;;2.55;;
75135;SDS011;63707;52.212;9.540;2022-11-23T08:13:54;5.38;;;2.03;;
75135;SDS011;63707;52.212;9.540;2022-11-23T08:16:20;7.82;;;2.28;;
75135;SDS011;63707;52.212;9.540;2022-11-23T08:18:45;7.93;;;2.25;;
75135;SDS011;63707;52.212;9.540;2022-11-23T08:21:11;8.43;;;2.05;;
75135;SDS011;63707;52.212;9.540;2022-11-23T08:23:36;6.18;;;1.83;;
75135;SDS011;63707;52.212;9.540;2022-11-23T08:26:03;6.03;;;2.03;;
75135;SDS011;63707;52.212;9.540;2022-11-23T08:28:29;11.90;;;2.30;;
75135;SDS011;63707;52.212;9.540;2022-11-23T08:30:55;5.70;;;2.00;;
75135;SDS011;63707;52.212;9.540;2022-11-23T08:33:20;5.50;;;2.33;;
75135;SDS011;63707;52.212;9.540;2022-11-23T08:35:46;9.95;;;2.13;;
75135;SDS011;63707;52.212;9.540;2022-11-23T08:38:11;7.72;;;1.75;;
75135;SDS011;63707;52.212;9.540;2022-11-23T08:40:37;10.35;;;1.80;;
75135;SDS011;63707;52.212;9.540;2022-11-23T08:43:04;7.18;;;1.90;;
75135;SDS011;63707;52.212;9.540;2022-11-23T08:45:30;8.43;;;2.25;;
75135;SDS011;63707;52.212;9.540;2022-11-23T08:47:57;7.80;;;2.22;;
75135;SDS011;63707;52.212;9.540;2022-11-23T08:50:23;7.35;;;1.98;;
75135;SDS011;63707;52.212;9.540;2022-11-23T08:52:53;13.27;;;2.40;;
75135;SDS011;63707;52.212;9.540;2022-11-23T08:55:19;8.13;;;2.13;;
75135;SDS011;63707;52.212;9.540;2022-11-23T08:57:45;8.18;;;2.47;;
75135;SDS011;63707;52.212;9.540;2022-11-23T09:00:13;5.97;;;1.83;;
75135;SDS011;63707;52.212;9.540;2022-11-23T09:02:39;8.00;;;1.77;;
75135;SDS011;63707;52.212;9.540;2022-11-23T09:05:04;7.07;;;1.80;;
75135;SDS011;63707;52.212;9.540;2022-11-23T09:07:31;6.63;;;2.03;;
75135;SDS011;63707;52.212;9.540;2022-11-23T09:09:57;5.03;;;2.30;;
75135;SDS011;63707;52.212;9.540;2022-11-23T09:12:22;7.38;;;2.00;;
75135;SDS011;63707;52.212;9.540;2022-11-23T09:14:48;7.32;;;1.98;;
75135;SDS011;63707;52.212;9.540;2022-11-23T09:17:15;10.70;;;2.25;;
75135;SDS011;63707;52.212;9.540;2022-11-23T09:19:40;9.48;;;2.00;;
75135;SDS011;63707;52.212;9.540;2022-11-23T09:22:06;11.52;;;2.90;;
75135;SDS011;63707;52.212;9.540;2022-11-23T09:24:31;6.18;;;1.85;;
75135;SDS011;63707;52.212;9.540;2022-11-23T09:26:57;4.95;;;1.67;;
75135;SDS011;63707;52.212;9.540;2022-11-23T09:29:22;11.00;;;2.00;;
75135;SDS011;63707;52.212;9.540;2022-11-23T09:31:49;8.38;;;1.80;;
75135;SDS011;63707;52.212;9.540;2022-11-23T09:34:16;6.95;;;1.75;;
75135;SDS011;63707;52.212;9.540;2022-11-23T09:36:41;7.40;;;1.85;;
75135;SDS011;63707;52.212;9.540;2022-11-23T09:39:07;6.22;;;2.00;;
75135;SDS011;63707;52.212;9.540;2022-11-23T09:41:40;7.90;;;2.35;;
75135;SDS011;63707;52.212;9.540;2022-11-23T09:44:15;7.55;;;1.52;;
75135;SDS011;63707;52.212;9.540;2022-11-23T09:46:47;5.32;;;1.77;;
75135;SDS011;63707;52.212;9.540;2022-11-23T09:49:29;5.72;;;1.77;;
75135;SDS011;63707;52.212;9.540;2022-11-23T09:52:02;6.78;;;1.85;;
75135;SDS011;63707;52.212;9.540;2022-11-23T09:54:35;7.03;;;2.00;;
75135;SDS011;63707;52.212;9.540;2022-11-23T09:57:03;5.85;;;1.60;;
75135;SDS011;63707;52.212;9.540;2022-11-23T09:59:35;9.25;;;2.55;;
75135;SDS011;63707;52.212;9.540;2022-11-23T10:02:05;6.00;;;1.90;;
75135;SDS011;63707;52.212;9.540;2022-11-23T10:04:41;7.22;;;2.30;;
75135;SDS011;63707;52.212;9.540;2022-11-23T10:07:10;6.07;;;1.58;;
75135;SDS011;63707;52.212;9.540;2022-11-23T10:09:51;9.20;;;2.00;;
75135;SDS011;63707;52.212;9.540;2022-11-23T10:12:25;6.88;;;1.90;;
75135;SDS011;63707;52.212;9.540;2022-11-23T10:15:09;5.05;;;1.90;;
75135;SDS011;63707;52.212;9.540;2022-11-23T10:17:46;4.07;;;1.60;;
75135;SDS011;63707;52.212;9.540;2022-11-23T10:20:26;11.05;;;4.40;;
75135;SDS011;63707;52.212;9.540;2022-11-23T10:23:00;7.07;;;2.17;;
75135;SDS011;63707;52.212;9.540;2022-11-23T10:25:28;6.43;;;2.03;;
75135;SDS011;63707;52.212;9.540;2022-11-23T10:28:01;7.25;;;1.80;;
75135;SDS011;63707;52.212;9.540;2022-11-23T10:30:36;5.72;;;1.80;;
75135;SDS011;63707;52.212;9.540;2022-11-23T10:33:04;6.47;;;1.67;;
75135;SDS011;63707;52.212;9.540;2022-11-23T10:35:43;6.47;;;1.90;;
75135;SDS011;63707;52.212;9.540;2022-11-23T10:38:09;4.18;;;1.80;;
75135;SDS011;63707;52.212;9.540;2022-11-23T10:40:39;5.85;;;1.90;;
75135;SDS011;63707;52.212;9.540;2022-11-23T10:43:11;7.40;;;1.92;;
75135;SDS011;63707;52.212;9.540;2022-11-23T10:45:41;6.63;;;1.70;;
75135;SDS011;63707;52.212;9.540;2022-11-23T10:48:06;5.30;;;1.70;;
75135;SDS011;63707;52.212;9.540;2022-11-23T10:50:33;11.23;;;2.15;;
75135;SDS011;63707;52.212;9.540;2022-11-23T10:53:20;5.32;;;2.00;;
75135;SDS011;63707;52.212;9.540;2022-11-23T10:55:47;7.07;;;2.00;;
75135;SDS011;63707;52.212;9.540;2022-11-23T10:58:22;6.07;;;1.70;;
75135;SDS011;63707;52.212;9.540;2022-11-23T11:00:55;3.42;;;1.30;;
75135;SDS011;63707;52.212;9.540;2022-11-23T11:03:23;3.33;;;1.33;;
75135;SDS011;63707;52.212;9.540;2022-11-23T11:05:49;6.35;;;1.75;;
75135;SDS011;63707;52.212;9.540;2022-11-23T11:08:15;5.13;;;1.60;;
75135;SDS011;63707;52.212;9.540;2022-11-23T11:10:44;5.03;;;1.55;;
75135;SDS011;63707;52.212;9.540;2022-11-23T11:13:24;5.68;;;1.80;;
75135;SDS011;63707;52.212;9.540;2022-11-23T11:15:52;5.50;;;1.50;;
75135;SDS011;63707;52.212;9.540;2022-11-23T11:18:18;4.90;;;1.65;;
75135;SDS011;63707;52.212;9.540;2022-11-23T11:20:44;5.57;;;1.80;;
75135;SDS011;63707;52.212;9.540;2022-11-23T11:23:14;5.32;;;2.08;;
75135;SDS011;63707;52.212;9.540;2022-11-23T11:25:41;5.28;;;1.52;;
75135;SDS011;63707;52.212;9.540;2022-11-23T11:28:17;5.05;;;1.80;;
75135;SDS011;63707;52.212;9.540;2022-11-23T11:30:53;4.82;;;1.35;;
75135;SDS011;63707;52.212;9.540;2022-11-23T11:33:28;8.57;;;1.90;;
75135;SDS011;63707;52.212;9.540;2022-11-23T11:35:57;5.88;;;2.08;;
75135;SDS011;63707;52.212;9.540;2022-11-23T11:38:26;3.47;;;1.27;;
75135;SDS011;63707;52.212;9.540;2022-11-23T11:40:59;5.20;;;1.67;;
75135;SDS011;63707;52.212;9.540;2022-11-23T11:43:30;6.47;;;1.90;;
75135;SDS011;63707;52.212;9.540;2022-11-23T11:46:01;5.85;;;1.40;;
75135;SDS011;63707;52.212;9.540;2022-11-23T11:48:31;6.25;;;1.25;;
75135;SDS011;63707;52.212;9.540;2022-11-23T11:51:01;5.18;;;1.42;;
75135;SDS011;63707;52.212;9.540;2022-11-23T11:53:32;4.30;;;1.40;;
75135;SDS011;63707;52.212;9.540;2022-11-23T11:56:06;7.53;;;1.53;;
75135;SDS011;63707;52.212;9.540;2022-11-23T11:58:39;6.78;;;1.75;;
75135;SDS011;63707;52.212;9.540;2022-11-23T12:01:16;6.97;;;2.55;;
75135;SDS011;63707;52.212;9.540;2022-11-23T12:03:50;6.15;;;1.42;;
75135;SDS011;63707;52.212;9.540;2022-11-23T12:06:22;7.70;;;1.70;;
75135;SDS011;63707;52.212;9.540;2022-11-23T12:08:54;3.45;;;1.52;;
75135;SDS011;63707;52.212;9.540;2022-11-23T12:11:25;6.43;;;1.70;;
75135;SDS011;63707;52.212;9.540;2022-11-23T12:13:51;6.57;;;2.05;;
75135;SDS011;63707;52.212;9.540;2022-11-23T12:16:27;6.25;;;1.67;;
75135;SDS011;63707;52.212;9.540;2022-11-23T12:19:01;4.10;;;1.55;;
75135;SDS011;63707;52.212;9.540;2022-11-23T12:21:47;4.82;;;1.48;;
75135;SDS011;63707;52.212;9.540;2022-11-23T12:24:35;3.92;;;1.20;;
75135;SDS011;63707;52.212;9.540;2022-11-23T12:27:17;3.97;;;1.10;;
75135;SDS011;63707;52.212;9.540;2022-11-23T12:29:55;6.07;;;1.20;;
75135;SDS011;63707;52.212;9.540;2022-11-23T12:32:39;8.30;;;1.42;;
75135;SDS011;63707;52.212;9.540;2022-11-23T12:38:12;9.23;;;2.05;;
75135;SDS011;63707;52.212;9.540;2022-11-23T12:40:52;7.57;;;1.60;;
75135;SDS011;63707;52.212;9.540;2022-11-23T12:43:27;4.57;;;1.38;;
75135;SDS011;63707;52.212;9.540;2022-11-23T12:46:01;6.53;;;1.48;;
75135;SDS011;63707;52.212;9.540;2022-11-23T12:48:44;5.13;;;1.17;;
75135;SDS011;63707;52.212;9.540;2022-11-23T12:51:21;8.00;;;1.35;;
75135;SDS011;63707;52.212;9.540;2022-11-23T12:54:00;6.90;;;1.42;;
75135;SDS011;63707;52.212;9.540;2022-11-23T12:59:31;10.45;;;1.48;;
75135;SDS011;63707;52.212;9.540;2022-11-23T13:02:04;7.75;;;1.83;;
75135;SDS011;63707;52.212;9.540;2022-11-23T13:04:45;8.73;;;2.00;;
75135;SDS011;63707;52.212;9.540;2022-11-23T13:07:31;7.50;;;1.33;;
75135;SDS011;63707;52.212;9.540;2022-11-23T13:10:20;6.03;;;1.67;;
75135;SDS011;63707;52.212;9.540;2022-11-23T13:13:01;6.70;;;1.50;;
75135;SDS011;63707;52.212;9.540;2022-11-23T13:15:41;9.95;;;1.90;;
75135;SDS011;63707;52.212;9.540;2022-11-23T13:18:28;6.82;;;1.75;;
75135;SDS011;63707;52.212;9.540;2022-11-23T13:21:10;7.57;;;1.98;;
75135;SDS011;63707;52.212;9.540;2022-11-23T13:23:52;5.80;;;1.50;;
75135;SDS011;63707;52.212;9.540;2022-11-23T13:26:18;9.75;;;2.15;;
75135;SDS011;63707;52.212;9.540;2022-11-23T13:28:46;10.23;;;2.15;;
75135;SDS011;63707;52.212;9.540;2022-11-23T13:31:27;11.70;;;2.20;;
75135;SDS011;63707;52.212;9.540;2022-11-23T13:33:55;8.32;;;1.70;;
75135;SDS011;63707;52.212;9.540;2022-11-23T13:36:35;5.68;;;1.90;;
75135;SDS011;63707;52.212;9.540;2022-11-23T13:42:24;8.68;;;1.98;;
75135;SDS011;63707;52.212;9.540;2022-11-23T13:47:39;9.13;;;1.92;;
75135;SDS011;63707;52.212;9.540;2022-11-23T13:50:08;7.40;;;1.85;;
75135;SDS011;63707;52.212;9.540;2022-11-23T13:52:46;8.45;;;1.40;;
75135;SDS011;63707;52.212;9.540;2022-11-23T13:55:19;5.32;;;1.60;;
75135;SDS011;63707;52.212;9.540;2022-11-23T14:00:49;9.93;;;1.85;;
75135;SDS011;63707;52.212;9.540;2022-11-23T14:06:25;12.77;;;1.90;;
75135;SDS011;63707;52.212;9.540;2022-11-23T14:08:59;8.98;;;2.10;;
75135;SDS011;63707;52.212;9.540;2022-11-23T14:11:32;8.57;;;2.10;;
75135;SDS011;63707;52.212;9.540;2022-11-23T14:14:04;8.15;;;1.80;;
75135;SDS011;63707;52.212;9.540;2022-11-23T14:16:48;16.80;;;2.55;;
75135;SDS011;63707;52.212;9.540;2022-11-23T14:19:30;8.68;;;1.90;;
75135;SDS011;63707;52.212;9.540;2022-11-23T14:22:05;9.20;;;2.00;;
75135;SDS011;63707;52.212;9.540;2022-11-23T14:24:51;7.90;;;2.28;;
75135;SDS011;63707;52.212;9.540;2022-11-23T14:27:37;8.63;;;2.50;;
75135;SDS011;63707;52.212;9.540;2022-11-23T14:30:27;11.18;;;1.88;;
75135;SDS011;63707;52.212;9.540;2022-11-23T14:33:08;8.52;;;2.40;;
75135;SDS011;63707;52.212;9.540;2022-11-23T14:35:47;10.77;;;2.22;;
75135;SDS011;63707;52.212;9.540;2022-11-23T14:38:33;9.15;;;2.17;;
75135;SDS011;63707;52.212;9.540;2022-11-23T14:41:13;9.40;;;2.30;;
75135;SDS011;63707;52.212;9.540;2022-11-23T14:43:42;14.63;;;2.50;;
75135;SDS011;63707;52.212;9.540;2022-11-23T14:46:13;8.00;;;2.22;;
75135;SDS011;63707;52.212;9.540;2022-11-23T14:48:39;7.72;;;1.92;;
75135;SDS011;63707;52.212;9.540;2022-11-23T14:51:09;12.45;;;2.33;;
75135;SDS011;63707;52.212;9.540;2022-11-23T14:53:38;7.45;;;1.60;;
75135;SDS011;63707;52.212;9.540;2022-11-23T14:56:04;12.88;;;2.80;;
75135;SDS011;63707;52.212;9.540;2022-11-23T14:58:30;9.85;;;1.92;;
75135;SDS011;63707;52.212;9.540;2022-11-23T15:00:57;13.27;;;2.03;;
75135;SDS011;63707;52.212;9.540;2022-11-23T15:03:25;11.15;;;2.05;;
75135;SDS011;63707;52.212;9.540;2022-11-23T15:05:54;7.60;;;1.60;;
75135;SDS011;63707;52.212;9.540;2022-11-23T15:08:27;12.48;;;2.13;;
75135;SDS011;63707;52.212;9.540;2022-11-23T15:10:58;7.70;;;2.08;;
75135;SDS011;63707;52.212;9.540;2022-11-23T15:13:28;12.52;;;2.20;;
75135;SDS011;63707;52.212;9.540;2022-11-23T15:15:55;12.85;;;2.65;;